createdAt,value
2023-02-04T05:01:10.155Z,82.08
2023-02-04T05:05:14.168Z,81.86
2023-02-04T05:09:17.456Z,81.21
2023-02-04T05:13:19.956Z,81.24
2023-02-04T05:17:23.764Z,81.34
2023-02-04T05:21:26.278Z,82.38
2023-02-04T05:25:29.182Z,82.55
2023-02-04T05:29:31.697Z,83.38
2023-02-04T05:33:35.513Z,83.62
2023-02-04T05:37:38.027Z,84.63
2023-02-04T05:41:40.538Z,84.73
2023-02-04T05:45:43.148Z,85.48
2023-02-04T05:49:47.041Z,85.28
2023-02-04T05:53:49.743Z,85.07
2023-02-04T05:57:52.252Z,85.38
2023-02-04T06:01:54.744Z,85.43
2023-02-04T06:05:58.611Z,86.03
2023-02-04T06:10:01.116Z,86.30
2023-02-04T06:14:03.799Z,86.38
2023-02-04T06:18:06.338Z,85.92
2023-02-04T06:22:10.153Z,85.82
2023-02-04T06:26:12.711Z,86.04
2023-02-04T06:30:15.989Z,85.97
2023-02-04T06:34:18.479Z,86.33
2023-02-04T06:38:22.597Z,86.52
2023-02-04T06:42:25.529Z,86.03
2023-02-04T06:46:28.105Z,86.36
2023-02-04T06:50:31.052Z,86.31
2023-02-04T06:54:35.369Z,86.19
2023-02-04T06:58:37.873Z,86.50
2023-02-04T07:02:40.475Z,86.52
2023-02-04T07:06:43.023Z,86.63
2023-02-04T07:10:46.840Z,86.99
2023-02-04T07:14:49.349Z,86.24
2023-02-04T07:18:51.904Z,85.68
2023-02-04T07:22:54.380Z,85.65
2023-02-04T07:26:58.333Z,85.36
2023-02-04T07:31:00.956Z,84.98
2023-02-04T07:35:03.476Z,85.48
2023-02-04T07:39:05.964Z,85.96
2023-02-04T07:43:09.760Z,85.78
2023-02-04T07:47:12.756Z,85.64
2023-02-04T07:51:15.254Z,85.40
2023-02-04T07:55:18.171Z,85.51
2023-02-04T07:59:22.001Z,85.28
2023-02-04T08:03:24.500Z,84.95
2023-02-04T08:07:26.988Z,85.36
2023-02-04T08:11:29.497Z,84.95
2023-02-04T08:15:33.618Z,84.45
2023-02-04T08:19:36.077Z,83.59
2023-02-04T08:23:41.646Z,83.16
2023-02-04T08:27:44.220Z,83.16
2023-02-04T08:31:48.615Z,81.85
2023-02-04T08:35:52.062Z,80.28
2023-02-04T08:39:54.431Z,79.90
2023-02-04T08:43:56.946Z,80.14
2023-02-04T08:48:00.847Z,79.72
2023-02-04T08:52:04.383Z,80.16
2023-02-04T08:56:07.648Z,80.35
2023-02-04T09:00:15.583Z,80.16
2023-02-04T09:04:19.812Z,79.16
2023-02-04T09:08:22.298Z,79.32
2023-02-04T09:12:24.874Z,79.60
2023-02-04T09:16:27.414Z,78.48
2023-02-04T09:20:31.749Z,76.60
2023-02-04T09:24:34.520Z,75.88
2023-02-04T09:28:37.233Z,72.20
2023-02-04T09:32:39.815Z,72.06
2023-02-04T09:36:43.912Z,70.06
2023-02-04T09:40:52.275Z,69.99
2023-02-04T09:44:55.012Z,69.25
2023-02-04T09:48:59.591Z,68.11
2023-02-04T09:53:06.306Z,68.03
2023-02-04T09:57:15.811Z,68.04
2023-02-04T10:01:20.728Z,67.52
2023-02-04T10:05:31.086Z,65.53
2023-02-04T10:09:34.948Z,64.33
2023-02-04T10:13:41.750Z,63.53
2023-02-04T10:17:44.384Z,63.84
2023-02-04T10:21:47.170Z,64.25
2023-02-04T10:25:50.993Z,62.75
2023-02-04T10:29:57.758Z,64.20
2023-02-04T10:34:05.269Z,61.97
2023-02-04T10:38:08.161Z,60.87
2023-02-04T10:42:22.794Z,60.53
2023-02-04T10:46:25.396Z,59.23
2023-02-04T10:50:30.693Z,58.86
2023-02-04T10:54:38.360Z,59.78
2023-02-04T10:58:42.198Z,60.35
2023-02-04T11:02:46.831Z,60.00
2023-02-04T11:06:49.322Z,60.66
2023-02-04T11:10:55.506Z,60.67
2023-02-04T11:14:59.628Z,60.29
2023-02-04T11:19:04.806Z,59.68
2023-02-04T11:23:34.743Z,59.99
2023-02-04T11:27:41.004Z,59.98
2023-02-04T11:31:57.615Z,60.53
2023-02-04T11:36:04.390Z,60.49
2023-02-04T11:40:23.276Z,60.88
2023-02-04T11:44:26.398Z,60.49
2023-02-04T11:48:30.460Z,59.93
2023-02-04T11:52:36.631Z,59.68
2023-02-04T11:56:39.140Z,57.75
2023-02-04T12:00:43.293Z,57.04
2023-02-04T12:04:55.162Z,55.63
2023-02-04T12:09:06.388Z,55.91
2023-02-04T12:13:20.389Z,55.87
2023-02-04T12:17:23.572Z,57.77
2023-02-04T12:21:27.375Z,57.56
2023-02-04T12:25:30.392Z,57.70
2023-02-04T12:29:33.040Z,56.71
2023-02-04T12:33:35.566Z,57.94
2023-02-04T12:37:39.381Z,58.97
2023-02-04T12:41:41.905Z,58.25
2023-02-04T12:45:46.308Z,58.21
2023-02-04T12:49:48.820Z,57.12
2023-02-04T12:53:53.000Z,57.65
2023-02-04T12:57:56.150Z,57.00
2023-02-04T13:01:58.942Z,56.35
2023-02-04T13:06:01.454Z,55.99
2023-02-04T13:10:06.089Z,55.28
2023-02-04T13:14:08.676Z,56.83
2023-02-04T13:18:11.169Z,57.26
2023-02-04T13:22:13.666Z,57.30
2023-02-04T13:26:17.481Z,57.51
2023-02-04T13:30:20.055Z,57.71
2023-02-04T13:34:22.608Z,56.91
2023-02-04T13:38:25.922Z,56.37
2023-02-04T13:42:29.735Z,55.45
2023-02-04T13:46:44.430Z,55.51
2023-02-04T13:50:46.935Z,54.61
2023-02-04T13:54:49.437Z,55.46
2023-02-04T13:58:53.260Z,57.38
2023-02-04T14:02:56.495Z,58.37
2023-02-04T14:06:58.965Z,58.74
2023-02-04T14:11:01.717Z,58.60
2023-02-04T14:15:06.053Z,59.24
2023-02-04T14:19:09.299Z,59.42
2023-02-04T14:23:12.798Z,59.80
2023-02-04T14:27:15.189Z,58.07
2023-02-04T14:31:19.244Z,56.25
2023-02-04T14:35:22.211Z,55.47
2023-02-04T14:39:24.823Z,56.10
2023-02-04T14:43:28.034Z,54.65
2023-02-04T14:47:31.865Z,55.57
2023-02-04T14:51:34.342Z,56.08
2023-02-04T14:55:37.275Z,56.51
2023-02-04T14:59:39.747Z,56.57
2023-02-04T15:03:43.572Z,57.92
2023-02-04T15:07:46.164Z,57.28
2023-02-04T15:11:48.628Z,58.13
2023-02-04T15:15:51.117Z,58.01
2023-02-04T15:19:56.046Z,56.52
2023-02-04T15:23:58.506Z,57.15
2023-02-04T15:28:01.014Z,56.67
2023-02-04T15:32:03.537Z,57.01
2023-02-04T15:36:08.008Z,57.83
2023-02-04T15:40:11.868Z,57.94
2023-02-04T15:44:14.360Z,59.42
2023-02-04T15:48:19.490Z,60.52
2023-02-04T15:52:25.429Z,62.07
2023-02-04T15:56:28.234Z,62.06
2023-02-04T16:00:31.013Z,62.00
2023-02-04T16:04:33.675Z,62.61
2023-02-04T16:08:37.815Z,62.88
2023-02-04T16:12:40.305Z,63.89
2023-02-04T16:16:42.854Z,66.38
2023-02-04T16:20:45.315Z,67.82
2023-02-04T16:24:49.674Z,69.09
2023-02-04T16:28:52.816Z,70.04
2023-02-04T16:32:55.295Z,70.58
2023-02-04T16:36:57.894Z,71.11
2023-02-04T16:41:01.746Z,71.84
2023-02-04T16:45:04.486Z,71.77
2023-02-04T16:49:07.040Z,71.78
2023-02-04T16:53:14.852Z,72.94
2023-02-04T16:57:18.836Z,73.56
2023-02-04T17:01:21.395Z,74.15
2023-02-04T17:05:23.902Z,74.22
2023-02-04T17:09:26.376Z,73.96
2023-02-04T17:13:30.221Z,74.29
2023-02-04T17:17:32.705Z,74.32
2023-02-04T17:21:35.278Z,73.77
2023-02-04T17:25:37.746Z,73.48
2023-02-04T17:29:41.557Z,73.06
2023-02-04T17:33:44.041Z,73.38
2023-02-04T17:37:46.496Z,73.48
2023-02-04T17:41:49.289Z,73.28
2023-02-04T17:45:53.376Z,74.01
2023-02-04T17:49:56.225Z,74.60
2023-02-04T17:53:58.693Z,75.67
2023-02-04T17:58:08.077Z,76.16
2023-02-04T18:02:23.422Z,76.50
2023-02-04T18:06:28.985Z,76.68
2023-02-04T18:10:34.257Z,76.72
2023-02-04T18:14:36.912Z,77.01
2023-02-04T18:18:41.533Z,77.58
2023-02-04T18:22:44.038Z,78.02
2023-02-04T18:26:48.368Z,78.24
2023-02-04T18:30:54.309Z,78.69
2023-02-04T18:34:59.344Z,78.44
2023-02-04T18:39:07.312Z,78.58
2023-02-04T18:43:22.545Z,79.03
2023-02-04T18:47:31.418Z,79.49
2023-02-04T18:51:39.343Z,79.59
2023-02-04T18:55:43.929Z,79.76
2023-02-04T18:59:47.272Z,79.68
2023-02-04T19:03:52.430Z,79.74
2023-02-04T19:08:18.232Z,80.40
2023-02-04T19:12:22.680Z,80.28
2023-02-04T19:16:27.066Z,80.18
2023-02-04T19:20:29.743Z,80.60
2023-02-04T19:24:34.278Z,81.18
2023-02-04T19:28:37.291Z,81.28
2023-02-04T19:32:45.828Z,81.03
2023-02-04T19:36:48.459Z,81.03
2023-02-04T19:40:52.784Z,81.71
2023-02-04T19:44:57.134Z,82.20
2023-02-04T19:48:59.723Z,82.99
2023-02-04T19:53:04.414Z,83.03
2023-02-04T19:57:21.856Z,83.12
2023-02-04T20:01:24.765Z,83.07
2023-02-04T20:05:31.617Z,82.95
2023-02-04T20:09:35.630Z,83.33
2023-02-04T20:13:39.444Z,83.27
2023-02-04T20:17:45.892Z,83.69
2023-02-04T20:22:01.154Z,83.85
2023-02-04T20:26:03.914Z,83.40
2023-02-04T20:30:26.558Z,83.24
2023-02-04T20:34:29.192Z,83.85
2023-02-04T20:38:32.186Z,84.18
2023-02-04T20:42:42.732Z,84.21
2023-02-04T20:46:46.734Z,84.88
2023-02-04T20:51:05.594Z,84.49
2023-02-04T20:55:24.277Z,84.29
2023-02-04T20:59:41.100Z,84.51
2023-02-04T21:03:50.149Z,84.47
2023-02-04T21:07:57.752Z,84.64
2023-02-04T21:12:01.541Z,84.82
2023-02-04T21:16:04.759Z,85.25
2023-02-04T21:20:09.877Z,85.46
2023-02-04T21:24:12.394Z,85.78
2023-02-04T21:28:15.310Z,86.05
2023-02-04T21:32:18.683Z,85.35
2023-02-04T21:36:24.244Z,85.76
2023-02-04T21:40:27.632Z,85.88
2023-02-04T21:44:30.042Z,85.10
2023-02-04T21:48:32.547Z,85.67
2023-02-04T21:52:36.446Z,85.90
2023-02-04T21:56:39.472Z,85.90
